Titania — 9HA2272 — position and weather

sailwx.info

Track history (hours):
 
Tides and Currents Weather Stations Pressure Air Temp Water Temp Dewpoint Dewpoint Depression Visibility Wind Speed Wind Dir Waves Ship Positions

Titania

Last reported at 2018-Apr-23 07:29 UTC. Time now 2018-Apr-25 02:27 UTC.
Position N 31°56' W 080°21'.

Length 231 m; draft 10.1 m.

Type: Cargo ship. MMSI: 248225000.

Date/timePositionNaut miles runAvg speedWind from/ knotsBaromVisibWave heightAir tempDewpointWater temp
2018-Apr-23 07:29N 31°56' W 080°21'611.5
2018-Apr-23 06:59N 31°56' W 080°28'5 9.6
2018-Apr-23 06:30N 31°56' W 080°33'5 9.7
2018-Apr-23 06:01N 31°56' W 080°39'4 8.9
2018-Apr-23 05:30N 31°57' W 080°43'611.5
2018-Apr-23 05:00N 32°01' W 080°49'510.3
2018-Apr-23 04:30N 32°02' W 080°55'510.3
2018-Apr-23 04:00N 32°05' W 080°59'4 8.3
2018-Apr-23 03:30N 32°05' W 081°04'2 3.1
2018-Apr-23 02:58N 32°05' W 081°06'0 0.0
2018-Apr-23 02:28N 32°05' W 081°06'0 0.0
2018-Apr-23 01:58N 32°05' W 081°06'0 0.0
2018-Apr-23 01:28N 32°05' W 081°06'0 0.0
2018-Apr-23 00:58N 32°05' W 081°06'0 0.0
2018-Apr-23 00:28N 32°05' W 081°06'0 0.0
2018-Apr-22 23:58N 32°05' W 081°06'0 0.0
2018-Apr-22 23:28N 32°05' W 081°06'0 0.0
2018-Apr-22 22:58N 32°05' W 081°06'0 0.0
2018-Apr-22 22:28N 32°05' W 081°06'0 0.0
2018-Apr-22 21:58N 32°05' W 081°06'0 0.0
2018-Apr-22 21:28N 32°05' W 081°06'0 0.0
2018-Apr-22 20:46N 32°05' W 081°06'0 0.0
2018-Apr-22 20:28N 32°05' W 081°06'0 0.0
2018-Apr-22 19:58N 32°05' W 081°06'0 0.0
2018-Apr-22 19:22N 32°05' W 081°06'0 0.0
2018-Apr-22 18:52N 32°05' W 081°06'0 0.0
2018-Apr-22 18:28N 32°05' W 081°06'0 0.0
2018-Apr-22 17:58N 32°05' W 081°06'0 0.0
2018-Apr-22 17:22N 32°05' W 081°06'0 0.0
2018-Apr-22 16:46N 32°05' W 081°06'0 0.0
2018-Apr-22 16:28N 32°05' W 081°06'0 0.0
2018-Apr-22 15:58N 32°05' W 081°06'0 0.0
2018-Apr-22 15:28N 32°05' W 081°06'0 0.0
2018-Apr-22 14:58N 32°05' W 081°06'0 0.0
2018-Apr-22 14:28N 32°05' W 081°06'0 0.0
2018-Apr-22 13:58N 32°05' W 081°06'0 0.0
2018-Apr-22 13:28N 32°05' W 081°06'0 0.0
2018-Apr-22 12:58N 32°05' W 081°06'0 0.0
2018-Apr-22 12:28N 32°05' W 081°06'0 0.0
2018-Apr-22 11:58N 32°05' W 081°06'0 0.0
2018-Apr-22 11:28N 32°05' W 081°06'0 0.0
2018-Apr-22 10:52N 32°05' W 081°06'0 0.0
2018-Apr-22 10:28N 32°05' W 081°06'0 0.0
2018-Apr-22 10:00N 32°05' W 081°06'1 2.9
2018-Apr-22 09:30N 32°06' W 081°07'1 2.0
2018-Apr-22 09:00N 32°06' W 081°06'2 4.6
2018-Apr-22 08:30N 32°05' W 081°04'4 7.6
2018-Apr-22 08:00N 32°06' W 080°60'4 8.3
2018-Apr-22 07:30N 32°03' W 080°56'4 8.1
2018-Apr-22 07:00N 32°02' W 080°51'714.0
2018-Apr-22 06:30N 31°58' W 080°44'4 8.7
2018-Apr-22 06:00N 31°57' W 080°39'5 9.0
2018-Apr-22 05:30N 31°57' W 080°34'5 9.2
2018-Apr-22 05:00N 31°58' W 080°29'4 8.6
2018-Apr-22 04:30N 31°58' W 080°24'37014.5
2018-Apr-21 03:03N 36°49' W 075°47'1 9.7
2018-Apr-21 02:58N 36°49' W 075°47'4 9.7
2018-Apr-21 02:30N 36°52' W 075°52'5 9.3
2018-Apr-21 01:58N 36°55' W 075°56'511.1
2018-Apr-21 01:30N 36°59' W 076°00'7116.8
2018-Apr-20 21:16N 38°09' W 076°14'3117.9
2018-Apr-20 19:33N 38°39' W 076°25'418.3
2018-Apr-20 19:21N 38°42' W 076°26'618.3
2018-Apr-20 19:00N 38°49' W 076°25'917.8
2018-Apr-20 18:30N 38°58' W 076°23'815.7
2018-Apr-20 18:00N 39°05' W 076°24'713.4
2018-Apr-20 17:30N 39°11' W 076°28'612.0
2018-Apr-20 17:00N 39°15' W 076°34'1 1.2
2018-Apr-20 16:28N 39°15' W 076°35'0 0.0
2018-Apr-20 15:58N 39°15' W 076°35'0 0.0
2018-Apr-20 15:28N 39°15' W 076°35'0 0.0
2018-Apr-20 14:58N 39°15' W 076°35'0 0.0
2018-Apr-20 14:28N 39°15' W 076°35'0 0.0
2018-Apr-20 13:58N 39°15' W 076°35'0 0.0
2018-Apr-20 13:28N 39°15' W 076°35'0 0.0
2018-Apr-20 12:58N 39°15' W 076°35'0 0.0
2018-Apr-20 12:28N 39°15' W 076°35'0 0.0
2018-Apr-20 11:58N 39°15' W 076°35'0 0.0
2018-Apr-20 11:28N 39°15' W 076°35'0 0.0
2018-Apr-20 10:58N 39°15' W 076°35'0 0.0
2018-Apr-20 10:28N 39°15' W 076°35'0 0.0
2018-Apr-20 09:58N 39°15' W 076°35'0 0.6
2018-Apr-20 09:30N 39°15' W 076°35'1 1.8
2018-Apr-20 09:00N 39°15' W 076°33'1 2.2
2018-Apr-20 08:30N 39°15' W 076°32'0 0.0
2018-Apr-20 07:59N 39°15' W 076°32'0 0.0
2018-Apr-20 07:30N 39°15' W 076°32'0 0.0
2018-Apr-20 07:00N 39°15' W 076°32'0 0.0
2018-Apr-20 06:30N 39°15' W 076°32'0 0.0
2018-Apr-20 05:59N 39°15' W 076°32'0 0.0
2018-Apr-20 05:30N 39°15' W 076°32'0 0.0
2018-Apr-20 04:59N 39°15' W 076°32'0 0.0
2018-Apr-20 04:30N 39°15' W 076°32'0 0.0
2018-Apr-20 03:59N 39°15' W 076°32'0 0.0
2018-Apr-20 03:30N 39°15' W 076°32'0 0.0
2018-Apr-20 03:00N 39°15' W 076°32'0 0.0
2018-Apr-20 02:30N 39°15' W 076°32'0 0.0
2018-Apr-20 01:59N 39°15' W 076°32'0 0.0
2018-Apr-20 01:30N 39°15' W 076°32'0 0.0
2018-Apr-20 01:00N 39°15' W 076°32'0 0.0
2018-Apr-20 00:30N 39°15' W 076°32'0 0.0
2018-Apr-20 00:00N 39°15' W 076°32'0 0.0
2018-Apr-19 23:30N 39°15' W 076°32'0 0.0
2018-Apr-19 22:59N 39°15' W 076°32'0 0.0
2018-Apr-19 22:29N 39°15' W 076°32'0 0.0
2018-Apr-19 22:00N 39°15' W 076°32'0 0.0
2018-Apr-19 21:30N 39°15' W 076°32'0 0.0
2018-Apr-19 20:59N 39°15' W 076°32'0 0.0
2018-Apr-19 20:30N 39°15' W 076°32'0 0.0
2018-Apr-19 20:00N 39°15' W 076°32'0 0.0
2018-Apr-19 19:29N 39°15' W 076°32'0 0.0
2018-Apr-19 18:59N 39°15' W 076°32'0 0.0
2018-Apr-19 18:30N 39°15' W 076°32'0 0.0
2018-Apr-19 18:00N 39°15' W 076°32'0 0.0
2018-Apr-19 17:29N 39°15' W 076°32'0 0.0
2018-Apr-19 17:00N 39°15' W 076°32'0 0.0
2018-Apr-19 16:30N 39°15' W 076°32'0 0.0
2018-Apr-19 16:00N 39°15' W 076°32'0 0.0
2018-Apr-19 15:30N 39°15' W 076°32'0 0.0
2018-Apr-19 15:00N 39°15' W 076°32'0 0.0
2018-Apr-19 14:30N 39°15' W 076°32'0 0.0
2018-Apr-19 14:00N 39°15' W 076°32'0 0.0
2018-Apr-19 13:29N 39°15' W 076°32'0 0.0
2018-Apr-19 13:00N 39°15' W 076°32'0 0.0
2018-Apr-19 12:29N 39°15' W 076°32'0 0.0
2018-Apr-19 12:00N 39°15' W 076°32'0 0.0
2018-Apr-19 11:29N 39°15' W 076°32'0 0.0
2018-Apr-19 11:00N 39°15' W 076°32'0 0.0
2018-Apr-19 10:29N 39°15' W 076°32'0 0.0
2018-Apr-19 09:59N 39°15' W 076°32'0 0.1
2018-Apr-19 09:30N 39°15' W 076°32'2 4.1
2018-Apr-19 09:00N 39°13' W 076°31'611.7
2018-Apr-19 08:30N 39°09' W 076°25'714.6
2018-Apr-19 08:00N 39°02' W 076°23'815.6
2018-Apr-19 07:30N 38°55' W 076°23'917.5
2018-Apr-19 07:00N 38°46' W 076°26'917.2
2018-Apr-19 06:28N 38°37' W 076°25'3516.2
2018-Apr-19 04:19N 38°03' W 076°13'5916.5
2018-Apr-19 00:45N 37°05' W 076°06'417.4
2018-Apr-19 00:30N 37°01' W 076°03'714.1
2018-Apr-19 00:00N 36°56' W 075°57'4 7.5
2018-Apr-18 23:30N 36°54' W 075°53'4 8.7
2018-Apr-18 23:00N 36°51' W 075°49'5 9.0
2018-Apr-18 22:29N 36°49' W 075°44'  
Track history (hours):
 
Tides and Currents Weather Stations Pressure Air Temp Water Temp Dewpoint Dewpoint Depression Visibility Wind Speed Wind Dir Waves Ship Positions

Titania

Last reported at 2018-Apr-23 07:29 UTC. Time now 2018-Apr-25 02:27 UTC.
Position N 31°56' W 080°21'.

Length 231 m; draft 10.1 m.

Type: Cargo ship. MMSI: 248225000.

Date/timePositionNaut miles runAvg speedWind from/ knotsBaromVisibWave heightAir tempDewpointWater temp
2018-Apr-23 07:29N 31°56' W 080°21'611.5
2018-Apr-23 06:59N 31°56' W 080°28'5 9.6
2018-Apr-23 06:30N 31°56' W 080°33'5 9.7
2018-Apr-23 06:01N 31°56' W 080°39'4 8.9
2018-Apr-23 05:30N 31°57' W 080°43'611.5
2018-Apr-23 05:00N 32°01' W 080°49'510.3
2018-Apr-23 04:30N 32°02' W 080°55'510.3
2018-Apr-23 04:00N 32°05' W 080°59'4 8.3
2018-Apr-23 03:30N 32°05' W 081°04'2 3.1
2018-Apr-23 02:58N 32°05' W 081°06'0 0.0
2018-Apr-23 02:28N 32°05' W 081°06'0 0.0
2018-Apr-23 01:58N 32°05' W 081°06'0 0.0
2018-Apr-23 01:28N 32°05' W 081°06'0 0.0
2018-Apr-23 00:58N 32°05' W 081°06'0 0.0
2018-Apr-23 00:28N 32°05' W 081°06'0 0.0
2018-Apr-22 23:58N 32°05' W 081°06'0 0.0
2018-Apr-22 23:28N 32°05' W 081°06'0 0.0
2018-Apr-22 22:58N 32°05' W 081°06'0 0.0
2018-Apr-22 22:28N 32°05' W 081°06'0 0.0
2018-Apr-22 21:58N 32°05' W 081°06'0 0.0
2018-Apr-22 21:28N 32°05' W 081°06'0 0.0
2018-Apr-22 20:46N 32°05' W 081°06'0 0.0
2018-Apr-22 20:28N 32°05' W 081°06'0 0.0
2018-Apr-22 19:58N 32°05' W 081°06'0 0.0
2018-Apr-22 19:22N 32°05' W 081°06'0 0.0
2018-Apr-22 18:52N 32°05' W 081°06'0 0.0
2018-Apr-22 18:28N 32°05' W 081°06'0 0.0
2018-Apr-22 17:58N 32°05' W 081°06'0 0.0
2018-Apr-22 17:22N 32°05' W 081°06'0 0.0
2018-Apr-22 16:46N 32°05' W 081°06'0 0.0
2018-Apr-22 16:28N 32°05' W 081°06'0 0.0
2018-Apr-22 15:58N 32°05' W 081°06'0 0.0
2018-Apr-22 15:28N 32°05' W 081°06'0 0.0
2018-Apr-22 14:58N 32°05' W 081°06'0 0.0
2018-Apr-22 14:28N 32°05' W 081°06'0 0.0
2018-Apr-22 13:58N 32°05' W 081°06'0 0.0
2018-Apr-22 13:28N 32°05' W 081°06'0 0.0
2018-Apr-22 12:58N 32°05' W 081°06'0 0.0
2018-Apr-22 12:28N 32°05' W 081°06'0 0.0
2018-Apr-22 11:58N 32°05' W 081°06'0 0.0
2018-Apr-22 11:28N 32°05' W 081°06'0 0.0
2018-Apr-22 10:52N 32°05' W 081°06'0 0.0
2018-Apr-22 10:28N 32°05' W 081°06'0 0.0
2018-Apr-22 10:00N 32°05' W 081°06'1 2.9
2018-Apr-22 09:30N 32°06' W 081°07'1 2.0
2018-Apr-22 09:00N 32°06' W 081°06'2 4.6
2018-Apr-22 08:30N 32°05' W 081°04'4 7.6
2018-Apr-22 08:00N 32°06' W 080°60'4 8.3
2018-Apr-22 07:30N 32°03' W 080°56'4 8.1
2018-Apr-22 07:00N 32°02' W 080°51'714.0
2018-Apr-22 06:30N 31°58' W 080°44'4 8.7
2018-Apr-22 06:00N 31°57' W 080°39'5 9.0
2018-Apr-22 05:30N 31°57' W 080°34'5 9.2
2018-Apr-22 05:00N 31°58' W 080°29'4 8.6
2018-Apr-22 04:30N 31°58' W 080°24'37014.5
2018-Apr-21 03:03N 36°49' W 075°47'1 9.7
2018-Apr-21 02:58N 36°49' W 075°47'4 9.7
2018-Apr-21 02:30N 36°52' W 075°52'5 9.3
2018-Apr-21 01:58N 36°55' W 075°56'511.1
2018-Apr-21 01:30N 36°59' W 076°00'7116.8
2018-Apr-20 21:16N 38°09' W 076°14'3117.9
2018-Apr-20 19:33N 38°39' W 076°25'418.3
2018-Apr-20 19:21N 38°42' W 076°26'618.3
2018-Apr-20 19:00N 38°49' W 076°25'917.8
2018-Apr-20 18:30N 38°58' W 076°23'815.7
2018-Apr-20 18:00N 39°05' W 076°24'713.4
2018-Apr-20 17:30N 39°11' W 076°28'612.0
2018-Apr-20 17:00N 39°15' W 076°34'1 1.2
2018-Apr-20 16:28N 39°15' W 076°35'0 0.0
2018-Apr-20 15:58N 39°15' W 076°35'0 0.0
2018-Apr-20 15:28N 39°15' W 076°35'0 0.0
2018-Apr-20 14:58N 39°15' W 076°35'0 0.0
2018-Apr-20 14:28N 39°15' W 076°35'0 0.0
2018-Apr-20 13:58N 39°15' W 076°35'0 0.0
2018-Apr-20 13:28N 39°15' W 076°35'0 0.0
2018-Apr-20 12:58N 39°15' W 076°35'0 0.0
2018-Apr-20 12:28N 39°15' W 076°35'0 0.0
2018-Apr-20 11:58N 39°15' W 076°35'0 0.0
2018-Apr-20 11:28N 39°15' W 076°35'0 0.0
2018-Apr-20 10:58N 39°15' W 076°35'0 0.0
2018-Apr-20 10:28N 39°15' W 076°35'0 0.0
2018-Apr-20 09:58N 39°15' W 076°35'0 0.6
2018-Apr-20 09:30N 39°15' W 076°35'1 1.8
2018-Apr-20 09:00N 39°15' W 076°33'1 2.2
2018-Apr-20 08:30N 39°15' W 076°32'0 0.0
2018-Apr-20 07:59N 39°15' W 076°32'0 0.0
2018-Apr-20 07:30N 39°15' W 076°32'0 0.0
2018-Apr-20 07:00N 39°15' W 076°32'0 0.0
2018-Apr-20 06:30N 39°15' W 076°32'0 0.0
2018-Apr-20 05:59N 39°15' W 076°32'0 0.0
2018-Apr-20 05:30N 39°15' W 076°32'0 0.0
2018-Apr-20 04:59N 39°15' W 076°32'0 0.0
2018-Apr-20 04:30N 39°15' W 076°32'0 0.0
2018-Apr-20 03:59N 39°15' W 076°32'0 0.0
2018-Apr-20 03:30N 39°15' W 076°32'0 0.0
2018-Apr-20 03:00N 39°15' W 076°32'0 0.0
2018-Apr-20 02:30N 39°15' W 076°32'0 0.0
2018-Apr-20 01:59N 39°15' W 076°32'0 0.0
2018-Apr-20 01:30N 39°15' W 076°32'0 0.0
2018-Apr-20 01:00N 39°15' W 076°32'0 0.0
2018-Apr-20 00:30N 39°15' W 076°32'0 0.0
2018-Apr-20 00:00N 39°15' W 076°32'0 0.0
2018-Apr-19 23:30N 39°15' W 076°32'0 0.0
2018-Apr-19 22:59N 39°15' W 076°32'0 0.0
2018-Apr-19 22:29N 39°15' W 076°32'0 0.0
2018-Apr-19 22:00N 39°15' W 076°32'0 0.0
2018-Apr-19 21:30N 39°15' W 076°32'0 0.0
2018-Apr-19 20:59N 39°15' W 076°32'0 0.0
2018-Apr-19 20:30N 39°15' W 076°32'0 0.0
2018-Apr-19 20:00N 39°15' W 076°32'0 0.0
2018-Apr-19 19:29N 39°15' W 076°32'0 0.0
2018-Apr-19 18:59N 39°15' W 076°32'0 0.0
2018-Apr-19 18:30N 39°15' W 076°32'0 0.0
2018-Apr-19 18:00N 39°15' W 076°32'0 0.0
2018-Apr-19 17:29N 39°15' W 076°32'0 0.0
2018-Apr-19 17:00N 39°15' W 076°32'0 0.0
2018-Apr-19 16:30N 39°15' W 076°32'0 0.0
2018-Apr-19 16:00N 39°15' W 076°32'0 0.0
2018-Apr-19 15:30N 39°15' W 076°32'0 0.0
2018-Apr-19 15:00N 39°15' W 076°32'0 0.0
2018-Apr-19 14:30N 39°15' W 076°32'0 0.0
2018-Apr-19 14:00N 39°15' W 076°32'0 0.0
2018-Apr-19 13:29N 39°15' W 076°32'0 0.0
2018-Apr-19 13:00N 39°15' W 076°32'0 0.0
2018-Apr-19 12:29N 39°15' W 076°32'0 0.0
2018-Apr-19 12:00N 39°15' W 076°32'0 0.0
2018-Apr-19 11:29N 39°15' W 076°32'0 0.0
2018-Apr-19 11:00N 39°15' W 076°32'0 0.0
2018-Apr-19 10:29N 39°15' W 076°32'0 0.0
2018-Apr-19 09:59N 39°15' W 076°32'0 0.1
2018-Apr-19 09:30N 39°15' W 076°32'2 4.1
2018-Apr-19 09:00N 39°13' W 076°31'611.7
2018-Apr-19 08:30N 39°09' W 076°25'714.6
2018-Apr-19 08:00N 39°02' W 076°23'815.6
2018-Apr-19 07:30N 38°55' W 076°23'917.5
2018-Apr-19 07:00N 38°46' W 076°26'917.2
2018-Apr-19 06:28N 38°37' W 076°25'3516.2
2018-Apr-19 04:19N 38°03' W 076°13'5916.5
2018-Apr-19 00:45N 37°05' W 076°06'417.4
2018-Apr-19 00:30N 37°01' W 076°03'714.1
2018-Apr-19 00:00N 36°56' W 075°57'4 7.5
2018-Apr-18 23:30N 36°54' W 075°53'4 8.7
2018-Apr-18 23:00N 36°51' W 075°49'5 9.0
2018-Apr-18 22:29N 36°49' W 075°44'  

Dump ship's entire track history